Time;durP1;ratioP1;P1;durP2;ratioP2;P2;SDS_P1;SDS_P2;PMS_P1;PMS_P2;Temp;Humidity;BMP_temperature;BMP_pressure;BME280_temperature;BME280_humidity;BME280_pressure;Samples;Min_cycle;Max_cycle;Signal;HPM_P1;HPM_P2
2021/12/04 00:00:24;;;;;;;10.40;6.20;;;5.00;99.90;;;;;;6209772;23;20062;-63
2021/12/04 00:02:50;;;;;;;12.02;6.07;;;5.00;99.90;;;;;;6208666;23;20466;-64
2021/12/04 00:05:17;;;;;;;13.23;6.85;;;5.00;99.90;;;;;;6207824;23;20402;-62
2021/12/04 00:07:43;;;;;;;11.15;5.72;;;5.00;99.90;;;;;;6210320;23;20087;-62
2021/12/04 00:10:10;;;;;;;11.95;6.38;;;5.00;99.90;;;;;;6209144;23;20037;-63
2021/12/04 00:12:36;;;;;;;12.10;6.32;;;5.00;99.90;;;;;;6210054;23;20004;-62
2021/12/04 00:15:02;;;;;;;10.73;6.32;;;5.00;99.90;;;;;;6210300;23;20780;-62
2021/12/04 00:17:28;;;;;;;10.63;5.65;;;5.00;99.90;;;;;;6210123;23;20005;-63
2021/12/04 00:19:54;;;;;;;11.63;6.43;;;5.00;99.90;;;;;;6210605;23;20018;-62
2021/12/04 00:22:20;;;;;;;11.45;6.32;;;5.10;99.90;;;;;;6211907;23;20506;-63
2021/12/04 00:24:46;;;;;;;12.43;6.10;;;5.00;99.90;;;;;;6211567;23;20422;-66
2021/12/04 00:27:12;;;;;;;12.52;6.10;;;5.00;99.90;;;;;;6210665;23;20075;-64
2021/12/04 00:29:37;;;;;;;12.95;6.20;;;5.10;99.90;;;;;;6212117;23;20067;-63
2021/12/04 00:32:11;;;;;;;11.48;6.28;;;5.00;99.90;;;;;;6210866;23;20062;-64
2021/12/04 00:34:41;;;;;;;13.80;7.22;;;5.00;99.90;;;;;;6212045;23;20020;-63
2021/12/04 00:50:32;;;;;;;10.32;6.40;;;5.10;99.90;;;;;;6211110;23;20433;-62
2021/12/04 00:52:58;;;;;;;18.58;7.93;;;5.10;99.90;;;;;;6210422;23;20020;-62
2021/12/04 00:55:24;;;;;;;17.67;7.30;;;5.00;99.90;;;;;;6211319;23;20005;-62
2021/12/04 00:57:50;;;;;;;17.95;7.53;;;5.00;99.90;;;;;;6210493;23;20019;-62
2021/12/04 01:00:15;;;;;;;14.32;7.63;;;5.00;99.90;;;;;;6211354;23;20032;-62
2021/12/04 01:02:42;;;;;;;16.92;8.27;;;5.00;99.90;;;;;;6211151;23;20012;-62
2021/12/04 01:05:08;;;;;;;21.08;8.23;;;5.10;99.90;;;;;;6210014;23;20462;-62
2021/12/04 01:07:34;;;;;;;16.00;8.60;;;5.10;99.90;;;;;;6211194;23;20012;-62
2021/12/04 01:10:03;;;;;;;15.95;7.65;;;5.10;99.90;;;;;;6208343;23;20024;-62
2021/12/04 01:12:28;;;;;;;22.48;9.63;;;5.10;99.90;;;;;;6210412;23;20022;-62
2021/12/04 01:14:54;;;;;;;22.52;9.15;;;5.10;99.90;;;;;;6210344;23;20558;-64
2021/12/04 01:17:20;;;;;;;20.33;9.27;;;5.10;99.90;;;;;;6210598;23;20012;-63
2021/12/04 01:19:45;;;;;;;23.38;10.02;;;5.20;99.90;;;;;;6211114;23;20008;-63
2021/12/04 01:22:11;;;;;;;22.63;10.10;;;5.20;99.90;;;;;;6208152;23;20071;-62
2021/12/04 01:24:37;;;;;;;27.27;10.20;;;5.10;99.90;;;;;;6209162;23;20052;-62
2021/12/04 01:27:03;;;;;;;29.65;10.73;;;5.10;99.90;;;;;;6209509;23;20009;-62
2021/12/04 01:29:29;;;;;;;26.02;10.85;;;5.20;99.90;;;;;;6211322;23;20004;-62
2021/12/04 01:31:54;;;;;;;25.08;9.88;;;5.20;99.90;;;;;;6209843;23;20008;-64
2021/12/04 01:34:20;;;;;;;28.35;10.75;;;5.20;99.90;;;;;;6210956;23;20032;-63
2021/12/04 01:36:45;;;;;;;28.58;10.75;;;5.20;99.90;;;;;;6208938;23;20078;-62
2021/12/04 01:39:11;;;;;;;26.23;10.85;;;5.20;99.90;;;;;;6210072;23;20004;-62
2021/12/04 01:41:37;;;;;;;26.10;11.75;;;5.20;99.90;;;;;;6210660;23;20012;-63
2021/12/04 01:44:05;;;;;;;27.90;10.95;;;5.20;99.90;;;;;;6210017;23;20020;-62
2021/12/04 01:46:31;;;;;;;33.03;11.73;;;5.20;99.90;;;;;;6210152;23;20009;-62
2021/12/04 01:48:57;;;;;;;40.90;13.95;;;5.20;99.90;;;;;;6209792;23;20015;-62
2021/12/04 01:51:23;;;;;;;31.27;11.00;;;5.20;99.90;;;;;;6211038;23;20012;-62
2021/12/04 01:53:49;;;;;;;38.13;11.70;;;5.20;99.90;;;;;;6210385;23;20020;-62
2021/12/04 01:56:15;;;;;;;31.73;12.23;;;5.20;99.90;;;;;;6210134;23;20365;-62
2021/12/04 01:58:42;;;;;;;35.83;13.73;;;5.30;99.90;;;;;;6210788;23;20008;-62
2021/12/04 02:01:08;;;;;;;32.58;12.57;;;5.30;99.90;;;;;;6209566;23;20129;-62
2021/12/04 02:03:34;;;;;;;34.40;12.75;;;5.30;99.90;;;;;;6208852;23;20431;-62
2021/12/04 02:06:00;;;;;;;37.65;13.13;;;5.30;99.90;;;;;;6207532;23;20039;-62
2021/12/04 02:08:25;;;;;;;37.55;14.50;;;5.30;99.90;;;;;;6209056;23;20514;-62
2021/12/04 02:10:56;;;;;;;37.75;14.13;;;5.30;99.90;;;;;;6209724;23;20032;-63
2021/12/04 02:13:22;;;;;;;38.03;13.77;;;5.30;99.90;;;;;;6210495;23;20016;-62
2021/12/04 02:15:48;;;;;;;46.38;14.45;;;5.30;99.90;;;;;;6209896;23;20034;-64
2021/12/04 02:18:16;;;;;;;45.63;14.65;;;5.30;99.90;;;;;;6208194;23;20339;-63
2021/12/04 02:20:42;;;;;;;38.78;14.48;;;5.30;99.90;;;;;;6210514;23;20031;-62
2021/12/04 02:23:09;;;;;;;36.63;13.32;;;5.30;99.90;;;;;;6209712;23;20008;-63
2021/12/04 02:25:35;;;;;;;43.30;14.05;;;5.30;99.90;;;;;;6210478;23;20092;-62
2021/12/04 02:28:02;;;;;;;44.72;14.75;;;5.30;99.90;;;;;;6209694;23;20016;-63
2021/12/04 02:30:35;;;;;;;41.70;13.55;;;5.40;99.90;;;;;;6210321;23;20012;-62
2021/12/04 02:33:11;;;;;;;41.80;14.88;;;5.30;99.90;;;;;;6209502;23;20008;-62
2021/12/04 02:35:40;;;;;;;42.60;15.20;;;5.40;99.90;;;;;;6210134;23;20076;-62
2021/12/04 02:38:06;;;;;;;51.08;15.15;;;5.40;99.90;;;;;;6209331;23;20012;-63
2021/12/04 02:40:31;;;;;;;46.55;13.80;;;5.40;99.90;;;;;;6210301;23;20000;-62
2021/12/04 02:42:57;;;;;;;40.10;14.20;;;5.40;99.90;;;;;;6209189;23;20031;-62
2021/12/04 02:45:22;;;;;;;51.15;15.18;;;5.40;99.90;;;;;;6210104;23;20016;-62
2021/12/04 02:47:48;;;;;;;39.55;14.40;;;5.40;99.90;;;;;;6209873;23;20024;-63
2021/12/04 02:50:14;;;;;;;60.75;15.35;;;5.40;99.90;;;;;;6207957;23;20463;-62
2021/12/04 02:52:42;;;;;;;43.83;14.30;;;5.40;99.90;;;;;;6210018;23;20088;-62
2021/12/04 02:55:08;;;;;;;39.65;15.02;;;5.40;99.90;;;;;;6209015;23;20020;-64
2021/12/04 02:57:37;;;;;;;42.25;13.55;;;5.40;99.90;;;;;;6210451;23;20069;-62
2021/12/04 03:00:05;;;;;;;43.20;14.07;;;5.40;99.90;;;;;;6209144;23;20009;-62
2021/12/04 03:02:30;;;;;;;51.90;15.43;;;5.40;99.90;;;;;;6210359;23;20692;-63
2021/12/04 03:04:59;;;;;;;45.70;14.60;;;5.30;99.90;;;;;;6209004;23;20004;-62
2021/12/04 03:07:25;;;;;;;63.35;15.75;;;5.40;99.90;;;;;;6210351;23;20023;-62
2021/12/04 03:09:52;;;;;;;42.92;13.82;;;5.40;99.90;;;;;;6208911;23;20446;-62
2021/12/04 03:12:23;;;;;;;55.97;15.55;;;5.40;99.90;;;;;;6210296;23;20458;-62
2021/12/04 03:14:49;;;;;;;49.75;14.75;;;5.40;99.90;;;;;;6209547;23;20439;-64
2021/12/04 03:17:18;;;;;;;44.45;14.23;;;5.40;99.90;;;;;;6209836;23;20004;-63
2021/12/04 03:19:43;;;;;;;60.75;15.57;;;5.40;99.90;;;;;;6209808;23;20023;-63
2021/12/04 03:22:09;;;;;;;49.60;14.65;;;5.40;99.90;;;;;;6209172;23;20004;-63
2021/12/04 03:24:39;;;;;;;61.65;14.80;;;5.40;99.90;;;;;;6210077;23;20608;-63
2021/12/04 03:27:04;;;;;;;62.03;15.07;;;5.40;99.90;;;;;;6208752;23;20339;-62
2021/12/04 03:29:32;;;;;;;48.95;14.43;;;5.40;99.90;;;;;;6210099;23;20015;-62
2021/12/04 03:42:29;;;;;;;52.10;14.32;;;5.50;99.90;;;;;;6213371;23;20008;-62
2021/12/04 03:44:55;;;;;;;44.58;13.45;;;5.40;99.90;;;;;;6209094;23;20024;-64
2021/12/04 03:47:21;;;;;;;56.33;16.10;;;5.40;99.90;;;;;;6209471;23;20088;-64
2021/12/04 03:49:48;;;;;;;46.15;14.60;;;5.50;99.90;;;;;;6211827;23;20016;-62
2021/12/04 03:52:14;;;;;;;62.17;15.48;;;5.40;99.90;;;;;;6211423;23;20012;-65
2021/12/04 03:54:40;;;;;;;41.63;14.00;;;5.40;99.90;;;;;;6211708;23;20017;-63
2021/12/04 03:57:06;;;;;;;43.40;13.18;;;5.50;99.90;;;;;;6211184;23;20096;-63
2021/12/04 03:59:34;;;;;;;49.95;15.05;;;5.50;99.90;;;;;;6211971;23;20016;-63
2021/12/04 04:02:00;;;;;;;55.03;13.05;;;5.40;99.90;;;;;;6210658;23;20075;-62
2021/12/04 04:04:26;;;;;;;47.45;14.55;;;5.40;99.90;;;;;;6211753;23;20008;-62
2021/12/04 04:06:52;;;;;;;63.97;16.88;;;5.40;99.90;;;;;;6210782;23;20012;-62
2021/12/04 04:09:17;;;;;;;54.70;14.45;;;5.50;99.90;;;;;;6210068;23;20443;-64
2021/12/04 04:11:44;;;;;;;36.42;12.70;;;5.40;99.90;;;;;;6211816;23;20455;-62
2021/12/04 04:14:09;;;;;;;34.65;12.13;;;5.40;99.90;;;;;;6207940;23;20419;-62
2021/12/04 04:16:39;;;;;;;54.38;14.60;;;5.50;99.90;;;;;;6209693;23;20023;-62
2021/12/04 04:19:05;;;;;;;45.00;13.32;;;5.40;99.90;;;;;;6210553;23;20021;-62
2021/12/04 04:21:31;;;;;;;80.57;18.00;;;5.50;99.90;;;;;;6211751;23;20009;-62
2021/12/04 04:23:57;;;;;;;50.35;13.63;;;5.40;99.90;;;;;;6208974;23;20036;-61
2021/12/04 04:26:22;;;;;;;62.72;14.90;;;5.50;99.90;;;;;;6211233;23;20384;-64
2021/12/04 04:28:48;;;;;;;57.00;15.00;;;5.50;99.90;;;;;;6211341;23;20008;-65
2021/12/04 04:31:14;;;;;;;71.13;15.82;;;5.50;99.90;;;;;;6209389;23;20529;-62
2021/12/04 04:33:43;;;;;;;67.93;15.38;;;5.40;99.90;;;;;;6209876;23;20009;-63
2021/12/04 04:36:49;;;;;;;56.08;15.05;;;5.40;99.90;;;;;;6208383;23;20021;-63
2021/12/04 04:58:11;;;;;;;48.03;14.10;;;5.50;99.90;;;;;;6210785;23;20066;-63
2021/12/04 05:11:17;;;;;;;48.20;13.77;;;5.50;99.90;;;;;;6210360;23;20454;-62
2021/12/04 05:13:44;;;;;;;37.80;13.00;;;5.40;99.90;;;;;;6211404;23;20020;-63
2021/12/04 05:16:14;;;;;;;42.83;12.80;;;5.40;99.90;;;;;;6210057;23;20016;-62
2021/12/04 05:18:50;;;;;;;36.15;9.90;;;5.40;99.90;;;;;;6209734;23;20004;-62
2021/12/04 05:21:16;;;;;;;43.45;13.13;;;5.50;99.90;;;;;;6210506;23;20083;-62
2021/12/04 05:23:48;;;;;;;43.00;14.30;;;5.50;99.90;;;;;;6211351;23;20015;-62
2021/12/04 05:26:26;;;;;;;48.35;13.27;;;5.50;99.90;;;;;;6210077;23;20033;-62
2021/12/04 05:28:54;;;;;;;57.15;14.98;;;5.50;99.90;;;;;;6210272;23;20019;-65
2021/12/04 05:31:20;;;;;;;44.63;13.27;;;5.50;99.90;;;;;;6210585;23;20024;-63
2021/12/04 05:33:48;;;;;;;60.47;14.25;;;5.50;99.90;;;;;;6211042;23;20024;-63
2021/12/04 05:36:14;;;;;;;50.92;13.50;;;5.50;99.90;;;;;;6209201;23;20031;-62
2021/12/04 05:38:40;;;;;;;78.30;15.73;;;5.50;99.90;;;;;;6211195;23;20005;-63
2021/12/04 05:41:06;;;;;;;60.72;14.93;;;5.50;99.90;;;;;;6209008;23;20062;-63
2021/12/04 05:43:34;;;;;;;49.55;13.35;;;5.50;99.90;;;;;;6211489;23;20005;-62
2021/12/04 05:54:31;;;;;;;61.53;14.65;;;5.60;99.90;;;;;;6213407;23;20354;-62
2021/12/04 05:56:32;;;;;;;68.10;14.48;;;5.50;99.90;;;;;;6205196;23;20351;-62
2021/12/04 05:58:58;;;;;;;43.92;12.48;;;5.50;99.90;;;;;;6207966;23;20009;-62
2021/12/04 06:01:25;;;;;;;56.08;13.52;;;5.50;99.90;;;;;;6210319;23;20008;-64
2021/12/04 06:03:51;;;;;;;78.32;15.75;;;5.50;99.90;;;;;;6209649;23;20079;-66
2021/12/04 06:06:17;;;;;;;43.80;13.55;;;5.50;99.90;;;;;;6208450;23;20017;-62
2021/12/04 06:08:43;;;;;;;76.47;16.00;;;5.50;99.90;;;;;;6210849;23;20016;-62
2021/12/04 06:11:09;;;;;;;84.88;15.60;;;5.50;99.90;;;;;;6209511;23;20016;-62
2021/12/04 06:13:34;;;;;;;55.72;13.95;;;5.50;99.90;;;;;;6210877;23;20094;-62
2021/12/04 06:16:01;;;;;;;41.35;13.60;;;5.50;99.90;;;;;;6207416;23;20021;-63
2021/12/04 06:18:26;;;;;;;68.55;15.82;;;5.50;99.90;;;;;;6210653;23;20012;-63
2021/12/04 06:23:36;;;;;;;69.07;13.70;;;5.50;99.90;;;;;;6210856;23;20066;-62
2021/12/04 06:26:05;;;;;;;49.65;14.38;;;5.60;99.90;;;;;;6209202;23;20020;-63
2021/12/04 06:28:31;;;;;;;56.33;15.27;;;5.50;99.90;;;;;;6211242;23;20412;-62
2021/12/04 06:30:59;;;;;;;59.70;14.98;;;5.50;99.90;;;;;;6209522;23;20017;-62
2021/12/04 06:33:25;;;;;;;74.05;16.65;;;5.60;99.90;;;;;;6208966;23;20143;-63
2021/12/04 06:35:52;;;;;;;68.60;14.75;;;5.50;99.90;;;;;;6209552;23;20016;-66
2021/12/04 06:38:19;;;;;;;71.50;15.07;;;5.50;99.90;;;;;;6209735;23;20004;-62
2021/12/04 06:40:46;;;;;;;58.58;14.32;;;5.50;99.90;;;;;;6210951;23;20031;-62
2021/12/04 06:43:12;;;;;;;77.85;16.55;;;5.60;99.90;;;;;;6209277;23;20439;-62
2021/12/04 06:45:41;;;;;;;58.50;15.57;;;5.50;99.90;;;;;;6210442;23;20058;-62
2021/12/04 06:48:14;;;;;;;53.67;15.05;;;5.50;99.90;;;;;;6207685;23;20012;-62
2021/12/04 06:50:59;;;;;;;61.63;14.90;;;5.60;99.90;;;;;;6210579;23;20016;-62
2021/12/04 06:53:33;;;;;;;66.85;15.88;;;5.50;99.90;;;;;;6209884;23;20004;-62
2021/12/04 06:56:00;;;;;;;55.40;13.50;;;5.50;99.90;;;;;;6209735;23;20020;-62
2021/12/04 06:58:27;;;;;;;50.28;13.88;;;5.50;99.90;;;;;;6210381;23;20438;-64
2021/12/04 07:00:54;;;;;;;60.78;16.58;;;5.60;99.90;;;;;;6209639;23;20470;-63
2021/12/04 07:03:20;;;;;;;59.20;15.63;;;5.50;99.90;;;;;;6208829;23;20019;-63
2021/12/04 07:05:47;;;;;;;46.33;14.32;;;5.50;99.90;;;;;;6210217;23;20430;-62
2021/12/04 07:08:13;;;;;;;53.35;15.07;;;5.50;99.90;;;;;;6209196;23;20012;-63
2021/12/04 07:10:39;;;;;;;68.10;16.33;;;5.50;99.90;;;;;;6209562;23;20389;-62
2021/12/04 07:13:05;;;;;;;49.15;14.27;;;5.50;99.90;;;;;;6208299;23;20009;-62
2021/12/04 07:15:32;;;;;;;60.72;16.25;;;5.50;99.90;;;;;;6210315;23;20012;-62
2021/12/04 07:17:59;;;;;;;72.75;16.30;;;5.50;99.90;;;;;;6207373;23;20013;-61
2021/12/04 07:20:26;;;;;;;82.85;16.60;;;5.50;99.90;;;;;;6210429;23;20423;-62
2021/12/04 07:22:51;;;;;;;78.35;16.17;;;5.50;99.90;;;;;;6210308;23;20012;-64
2021/12/04 07:25:17;;;;;;;67.60;15.50;;;5.50;99.90;;;;;;6213664;23;20012;-63
2021/12/04 07:27:43;;;;;;;47.38;15.25;;;5.50;99.90;;;;;;6212081;23;20009;-63
2021/12/04 07:30:09;;;;;;;56.47;17.17;;;5.60;99.90;;;;;;6212687;23;20008;-62
2021/12/04 07:32:36;;;;;;;68.65;15.07;;;5.60;99.90;;;;;;6211616;23;20107;-62
2021/12/04 07:35:02;;;;;;;83.82;15.77;;;5.50;99.90;;;;;;6212742;23;20011;-62
2021/12/04 07:37:28;;;;;;;74.57;16.60;;;5.60;99.90;;;;;;6213949;23;20354;-63
2021/12/04 07:39:53;;;;;;;96.60;18.45;;;5.60;99.90;;;;;;6212887;23;20104;-63
2021/12/04 07:42:19;;;;;;;58.20;15.30;;;5.60;99.90;;;;;;6211724;23;20004;-62
2021/12/04 07:44:45;;;;;;;59.45;15.75;;;5.60;99.90;;;;;;6211834;23;20083;-63
2021/12/04 07:47:11;;;;;;;58.67;15.23;;;5.60;99.90;;;;;;6212038;23;20458;-62
2021/12/04 07:49:39;;;;;;;68.60;16.13;;;5.60;99.90;;;;;;6213276;23;20005;-62
2021/12/04 07:52:09;;;;;;;100.47;19.30;;;5.60;99.90;;;;;;6212668;23;20004;-62
2021/12/04 07:54:36;;;;;;;73.35;15.20;;;5.60;99.90;;;;;;6213590;23;20096;-62
2021/12/04 07:57:03;;;;;;;82.03;16.50;;;5.60;99.90;;;;;;6210382;23;20393;-64
2021/12/04 07:59:29;;;;;;;45.80;14.73;;;5.60;99.90;;;;;;6212984;23;20091;-62
2021/12/04 08:01:55;;;;;;;91.72;18.10;;;5.60;99.90;;;;;;6212950;23;20013;-62
2021/12/04 08:04:21;;;;;;;71.78;15.18;;;5.60;99.90;;;;;;6213479;23;20016;-62
2021/12/04 08:06:47;;;;;;;51.03;13.57;;;5.70;99.90;;;;;;6206431;23;20013;-62
2021/12/04 08:09:12;;;;;;;50.78;13.52;;;5.60;99.90;;;;;;6211503;23;20013;-62
2021/12/04 08:11:38;;;;;;;44.25;12.70;;;5.70;99.90;;;;;;6212501;23;20100;-62
2021/12/04 08:14:04;;;;;;;60.75;14.65;;;5.60;99.90;;;;;;6210752;23;20019;-62
2021/12/04 08:16:32;;;;;;;43.03;13.25;;;5.60;99.90;;;;;;6212566;23;20083;-62
2021/12/04 08:18:58;;;;;;;40.35;11.95;;;5.60;99.90;;;;;;6211471;23;20016;-63
2021/12/04 08:21:23;;;;;;;47.28;13.10;;;5.60;99.90;;;;;;6212310;23;20041;-63
2021/12/04 08:23:49;;;;;;;48.70;12.27;;;5.60;99.90;;;;;;6210300;23;20009;-62
2021/12/04 08:26:16;;;;;;;78.10;15.75;;;5.60;99.90;;;;;;6207193;23;20406;-64
2021/12/04 08:28:42;;;;;;;47.17;13.32;;;5.60;99.90;;;;;;6209444;23;20464;-62
2021/12/04 08:31:07;;;;;;;40.75;12.38;;;5.50;99.90;;;;;;6209060;23;20016;-62
2021/12/04 08:33:33;;;;;;;42.58;12.55;;;5.60;99.90;;;;;;6210160;23;20015;-62
2021/12/04 08:36:00;;;;;;;40.38;12.00;;;5.60;99.90;;;;;;6206917;23;20392;-62
2021/12/04 08:38:26;;;;;;;45.83;13.70;;;5.60;99.90;;;;;;6208800;23;20029;-63
2021/12/04 08:40:52;;;;;;;35.17;11.07;;;5.60;99.90;;;;;;6206870;23;20015;-68
2021/12/04 08:43:18;;;;;;;48.35;14.02;;;5.60;99.90;;;;;;6208029;23;20013;-63
2021/12/04 08:45:44;;;;;;;43.70;13.43;;;5.60;99.90;;;;;;6208351;23;20012;-62
2021/12/04 08:48:10;;;;;;;48.28;13.15;;;5.60;99.90;;;;;;6207723;23;20013;-62
2021/12/04 08:50:37;;;;;;;46.38;13.32;;;5.60;99.90;;;;;;6208584;23;20027;-63
2021/12/04 08:53:03;;;;;;;45.65;13.60;;;5.60;99.90;;;;;;6205025;23;20012;-64
2021/12/04 08:55:31;;;;;;;34.83;11.43;;;5.60;99.90;;;;;;6208627;23;20060;-62
2021/12/04 08:57:58;;;;;;;40.42;13.73;;;5.70;99.90;;;;;;6205540;23;20493;-63
2021/12/04 09:00:26;;;;;;;38.88;13.70;;;5.70;99.90;;;;;;6208330;23;20036;-62
2021/12/04 09:02:52;;;;;;;37.05;11.60;;;5.70;99.90;;;;;;6208109;23;20029;-62
2021/12/04 09:05:20;;;;;;;46.08;12.98;;;5.70;99.90;;;;;;6207457;23;20083;-62
2021/12/04 09:07:46;;;;;;;42.55;12.75;;;5.80;99.90;;;;;;6208940;23;20016;-63
2021/12/04 09:10:13;;;;;;;37.03;13.27;;;5.70;99.90;;;;;;6206085;23;21225;-62
2021/12/04 09:12:39;;;;;;;38.80;13.15;;;5.70;99.90;;;;;;6208716;23;20508;-62
2021/12/04 09:15:07;;;;;;;42.72;12.73;;;5.70;99.90;;;;;;6207635;23;20020;-62
2021/12/04 09:17:33;;;;;;;42.17;14.75;;;5.70;99.90;;;;;;6208212;23;20000;-62
2021/12/04 09:19:59;;;;;;;44.92;15.48;;;5.70;99.90;;;;;;6208913;23;20047;-62
2021/12/04 09:22:27;;;;;;;38.20;13.05;;;5.80;99.90;;;;;;6210561;23;20091;-62
2021/12/04 09:24:55;;;;;;;43.03;13.65;;;5.90;99.90;;;;;;6209095;23;20320;-63
2021/12/04 09:59:09;;;;;;;42.75;14.88;;;6.00;99.90;;;;;;6208825;23;20335;-62
2021/12/04 10:19:19;;;;;;;35.20;12.15;;;6.00;99.90;;;;;;6207934;23;20103;-63
2021/12/04 10:22:41;;;;;;;37.65;10.23;;;6.10;99.90;;;;;;6209055;23;20016;-63
2021/12/04 10:33:10;;;;;;;31.23;10.77;;;6.00;99.90;;;;;;6208254;23;20071;-63
2021/12/04 10:35:37;;;;;;;33.63;11.23;;;6.00;99.90;;;;;;6207007;23;20009;-62
2021/12/04 10:38:05;;;;;;;29.63;10.80;;;6.10;99.90;;;;;;6208312;23;20020;-62
2021/12/04 10:40:46;;;;;;;28.13;11.20;;;6.10;99.90;;;;;;6208718;23;20016;-62
2021/12/04 10:43:27;;;;;;;32.78;11.32;;;6.10;99.90;;;;;;6208615;23;20024;-62
2021/12/04 10:45:56;;;;;;;31.35;10.02;;;6.10;99.90;;;;;;6206566;23;20020;-68
2021/12/04 10:48:27;;;;;;;31.42;10.88;;;6.10;99.90;;;;;;6207512;23;20323;-62
2021/12/04 10:53:48;;;;;;;37.15;12.20;;;6.10;99.90;;;;;;6210207;23;20019;-62
2021/12/04 11:04:47;;;;;;;37.50;12.73;;;6.10;99.90;;;;;;6208919;23;20020;-62
2021/12/04 11:07:40;;;;;;;38.35;13.52;;;6.10;99.90;;;;;;6207140;23;20099;-63
2021/12/04 11:18:43;;;;;;;36.95;12.30;;;6.20;99.90;;;;;;6207896;23;20062;-64
2021/12/04 11:21:42;;;;;;;37.10;12.77;;;6.20;99.90;;;;;;6207409;23;21456;-63
2021/12/04 11:43:18;;;;;;;41.38;12.45;;;6.10;99.90;;;;;;6206983;23;20015;-63
2021/12/04 11:46:41;;;;;;;42.40;12.63;;;6.20;99.90;;;;;;6207676;23;20455;-62
2021/12/04 11:48:37;;;;;;;43.15;13.70;;;6.20;99.90;;;;;;6201375;23;20011;-62
2021/12/04 11:51:05;;;;;;;43.25;12.90;;;6.20;99.90;;;;;;6208310;23;20068;-62
2021/12/04 11:53:33;;;;;;;46.60;13.93;;;6.20;99.90;;;;;;6209465;23;20009;-63
2021/12/04 11:55:59;;;;;;;40.05;14.07;;;6.20;99.90;;;;;;6207626;23;20013;-62
2021/12/04 11:58:28;;;;;;;43.72;13.80;;;6.20;99.90;;;;;;6208753;23;20078;-62
2021/12/04 12:01:05;;;;;;;47.58;13.95;;;6.20;99.90;;;;;;6209349;23;20068;-64
2021/12/04 12:03:32;;;;;;;45.17;13.50;;;6.20;99.90;;;;;;6208579;23;20090;-62
2021/12/04 12:06:10;;;;;;;50.05;14.82;;;6.20;99.90;;;;;;6206342;23;20501;-64
2021/12/04 12:08:42;;;;;;;55.42;15.35;;;6.20;99.90;;;;;;6213717;23;20462;-62
2021/12/04 12:11:10;;;;;;;42.83;14.73;;;6.20;99.90;;;;;;6210002;23;20012;-65
2021/12/04 12:13:41;;;;;;;44.95;15.25;;;6.20;99.90;;;;;;6214523;23;20013;-62
2021/12/04 12:16:12;;;;;;;47.58;14.30;;;6.30;99.90;;;;;;6208029;23;20439;-62
2021/12/04 12:18:59;;;;;;;47.22;14.05;;;6.30;99.90;;;;;;6209379;23;20004;-62
2021/12/04 12:21:55;;;;;;;42.30;13.10;;;6.30;99.90;;;;;;6208352;23;20004;-63
2021/12/04 12:33:02;;;;;;;37.90;12.05;;;6.30;99.90;;;;;;6208772;23;20355;-62
2021/12/04 12:36:03;;;;;;;44.55;12.30;;;6.30;99.90;;;;;;6207809;23;20009;-63
2021/12/04 12:38:34;;;;;;;32.40;10.40;;;6.30;99.90;;;;;;6204077;23;20096;-62
2021/12/04 12:41:02;;;;;;;31.63;11.43;;;6.30;99.90;;;;;;6207783;23;20015;-63
2021/12/04 12:43:51;;;;;;;39.33;12.73;;;6.30;99.90;;;;;;6209403;23;20012;-62
2021/12/04 12:46:18;;;;;;;30.05;9.88;;;6.30;99.90;;;;;;6207320;23;20012;-63
2021/12/04 12:48:49;;;;;;;30.83;10.68;;;6.30;99.90;;;;;;6209577;23;20008;-62
2021/12/04 12:51:24;;;;;;;34.03;10.02;;;6.40;99.90;;;;;;6207478;23;20135;-62
2021/12/04 12:53:50;;;;;;;27.50;10.00;;;6.30;99.90;;;;;;6206100;23;20013;-63
2021/12/04 12:56:16;;;;;;;34.15;9.48;;;6.30;99.90;;;;;;6206244;23;20019;-63
2021/12/04 13:12:55;;;;;;;22.13;8.40;;;6.30;99.90;;;;;;6206277;23;20090;-62
2021/12/04 13:15:39;;;;;;;22.98;7.22;;;6.30;99.90;;;;;;6207147;23;20008;-63
2021/12/04 13:18:10;;;;;;;21.88;7.20;;;6.30;99.90;;;;;;6206479;23;20015;-64
2021/12/04 13:20:36;;;;;;;22.05;7.72;;;6.30;99.90;;;;;;6207370;23;20155;-63
2021/12/04 13:23:09;;;;;;;22.95;8.38;;;6.30;99.90;;;;;;6205318;23;20451;-63
2021/12/04 13:25:35;;;;;;;20.65;7.20;;;6.30;99.90;;;;;;6206995;23;20063;-62
2021/12/04 13:30:26;;;;;;;21.92;7.70;;;6.30;99.90;;;;;;6206964;23;20374;-63
2021/12/04 13:32:52;;;;;;;23.00;8.00;;;6.30;99.90;;;;;;6207241;23;20019;-62
2021/12/04 13:35:23;;;;;;;24.13;8.15;;;6.20;99.90;;;;;;6206247;23;20016;-63
2021/12/04 13:37:51;;;;;;;29.13;8.32;;;6.20;99.90;;;;;;6206797;23;20028;-62
2021/12/04 13:40:19;;;;;;;24.23;8.57;;;6.20;99.90;;;;;;6206729;23;20007;-64
2021/12/04 13:42:47;;;;;;;20.98;8.20;;;6.30;99.90;;;;;;6207466;23;20011;-62
2021/12/04 13:45:16;;;;;;;26.50;9.05;;;6.20;99.90;;;;;;6205896;23;20019;-63
2021/12/04 13:47:44;;;;;;;23.05;8.20;;;6.20;99.90;;;;;;6206928;23;20012;-62
2021/12/04 13:52:59;;;;;;;27.10;8.50;;;6.20;99.90;;;;;;6207636;23;20012;-61
2021/12/04 13:55:26;;;;;;;29.30;9.25;;;6.20;99.90;;;;;;6207141;23;20382;-62
2021/12/04 13:57:54;;;;;;;26.60;9.27;;;6.20;99.90;;;;;;6205097;23;20091;-63
2021/12/04 14:00:21;;;;;;;27.95;9.25;;;6.20;99.90;;;;;;6206587;23;20008;-63
2021/12/04 14:02:46;;;;;;;23.38;8.77;;;6.20;99.90;;;;;;6207112;23;20095;-63
2021/12/04 14:05:18;;;;;;;29.58;9.77;;;6.20;99.90;;;;;;6203594;23;20036;-62
2021/12/04 14:07:53;;;;;;;24.60;8.02;;;6.30;99.90;;;;;;6204421;23;20062;-62
2021/12/04 14:10:26;;;;;;;23.45;9.02;;;6.30;99.90;;;;;;6205528;23;20012;-62
2021/12/04 14:12:51;;;;;;;27.35;8.98;;;6.30;99.90;;;;;;6207060;23;20107;-62
2021/12/04 14:15:21;;;;;;;22.75;8.23;;;6.30;99.90;;;;;;6204971;23;20100;-62
2021/12/04 14:17:49;;;;;;;29.33;8.35;;;6.30;99.90;;;;;;6207160;23;20058;-62
2021/12/04 14:20:23;;;;;;;23.75;8.82;;;6.30;99.90;;;;;;6207337;23;20009;-62
2021/12/04 14:22:51;;;;;;;26.23;9.13;;;6.30;99.90;;;;;;6207775;23;20005;-64
2021/12/04 14:25:18;;;;;;;23.95;8.77;;;6.30;99.90;;;;;;6205776;23;20009;-62
2021/12/04 14:27:44;;;;;;;25.98;8.68;;;6.30;99.90;;;;;;6206870;23;20021;-62
2021/12/04 14:30:17;;;;;;;27.10;8.98;;;6.30;99.90;;;;;;6206160;23;20088;-62
2021/12/04 14:32:46;;;;;;;21.65;7.30;;;6.30;99.90;;;;;;6207184;23;20008;-62
2021/12/04 14:35:16;;;;;;;21.33;7.47;;;6.30;99.90;;;;;;6205188;23;20662;-62
2021/12/04 14:37:53;;;;;;;17.38;6.82;;;6.30;99.90;;;;;;6207101;23;20066;-62
2021/12/04 14:40:42;;;;;;;20.42;6.82;;;6.40;99.90;;;;;;6204920;23;20009;-62
2021/12/04 14:43:17;;;;;;;17.65;6.30;;;6.30;99.90;;;;;;6205316;23;20023;-62
2021/12/04 14:45:48;;;;;;;22.08;6.95;;;6.30;99.90;;;;;;6206303;23;20043;-62
2021/12/04 14:48:28;;;;;;;20.40;6.90;;;6.40;99.90;;;;;;6204186;23;20013;-63
2021/12/04 14:51:02;;;;;;;18.10;6.67;;;6.30;99.90;;;;;;6205840;23;20025;-62
2021/12/04 14:53:28;;;;;;;19.80;6.60;;;6.30;99.90;;;;;;6206255;23;20024;-62
2021/12/04 14:55:54;;;;;;;19.77;5.63;;;6.30;99.90;;;;;;6205913;23;20019;-62
2021/12/04 14:58:23;;;;;;;20.60;7.13;;;6.30;99.90;;;;;;6205927;23;20104;-62
2021/12/04 15:00:54;;;;;;;14.88;5.65;;;6.20;99.90;;;;;;6205953;23;20390;-62
2021/12/04 15:03:48;;;;;;;22.50;6.57;;;6.20;99.90;;;;;;6204901;23;20051;-63
2021/12/04 15:06:17;;;;;;;17.90;6.05;;;6.20;99.90;;;;;;6204950;23;20023;-62
2021/12/04 15:08:49;;;;;;;16.58;5.57;;;6.20;99.90;;;;;;6206252;23;20017;-62
2021/12/04 15:11:19;;;;;;;15.40;5.00;;;6.20;99.90;;;;;;6205203;23;20070;-62
2021/12/04 15:14:03;;;;;;;13.80;5.57;;;6.30;99.90;;;;;;6206228;23;20024;-63
2021/12/04 15:19:11;;;;;;;12.52;4.88;;;6.20;99.90;;;;;;6205909;23;20434;-62
2021/12/04 15:21:43;;;;;;;12.75;3.67;;;6.20;99.90;;;;;;6206099;23;20675;-62
2021/12/04 15:24:13;;;;;;;18.73;5.75;;;6.20;99.90;;;;;;6205011;23;20401;-62
2021/12/04 15:26:41;;;;;;;11.43;3.00;;;6.20;99.90;;;;;;6206131;23;20339;-62
2021/12/04 15:29:18;;;;;;;12.57;3.63;;;6.30;99.90;;;;;;6204940;23;20437;-62
2021/12/04 15:31:45;;;;;;;6.53;2.63;;;6.20;99.90;;;;;;6206453;23;20012;-62
2021/12/04 15:34:11;;;;;;;13.20;2.85;;;6.20;99.90;;;;;;6204512;23;20055;-62
2021/12/04 15:36:42;;;;;;;9.77;3.53;;;6.20;99.90;;;;;;6205552;23;20009;-62
2021/12/04 15:39:15;;;;;;;7.97;2.97;;;6.20;99.90;;;;;;6205348;23;20022;-62
2021/12/04 15:44:31;;;;;;;11.38;3.90;;;6.20;99.90;;;;;;6206307;23;20096;-62
2021/12/04 15:55:08;;;;;;;7.65;2.85;;;6.20;99.90;;;;;;6207021;23;20027;-62
2021/12/04 15:57:34;;;;;;;8.25;3.20;;;6.10;99.90;;;;;;6207561;23;20012;-62
2021/12/04 16:00:10;;;;;;;4.20;1.35;;;6.10;99.90;;;;;;6205705;23;20450;-65
2021/12/04 16:02:44;;;;;;;4.30;1.70;;;6.20;99.90;;;;;;6208584;23;20013;-62
2021/12/04 16:05:15;;;;;;;7.05;2.10;;;6.10;99.90;;;;;;6207234;23;20017;-62
2021/12/04 16:07:41;;;;;;;3.13;1.38;;;6.10;99.90;;;;;;6208243;23;20080;-62
2021/12/04 16:10:14;;;;;;;3.08;1.30;;;6.10;99.90;;;;;;6207169;23;20051;-63